Flight Track Log - Related Links

Times and Time Zones

All times are in EST time to prevent confusion due to time zone crossing. See the N8870J flight status page for this flight to view local times or setup timezone preferences in your user account.

Time Position Orientation Groundspeed Altitude Reporting Facility
EST Latitude Longitude Course Direction KTS MPH feet Rate Location/Type
Mon 01:51:35 PM 42.0142 -76.7556 138° Southeast 117 135 6,300  Level New York Center
Mon 01:53:00 PM 41.9824 -76.6960 126° Southeast  Level FlightAware Approximate
Mon 01:56:00 PM 41.8141 -76.4803 138° Southeast  Level Estimated
Mon 02:00:00 PM 41.7876 -76.4509 140° Southeast  Level FlightAware Approximate
Mon 02:01:00 PM 41.7580 -76.4180 140° Southeast  Level FlightAware Approximate
Mon 02:02:00 PM 41.7284 -76.3851 140° Southeast  Level FlightAware Approximate
Mon 02:03:00 PM 41.6987 -76.3522 140° Southeast  Level FlightAware Approximate
Mon 02:04:00 PM 41.6691 -76.3194 140° Southeast  Level FlightAware Approximate
Mon 02:05:00 PM 41.6406 -76.2848 138° Southeast  Level FlightAware Approximate
Mon 02:06:00 PM 41.6123 -76.2500 138° Southeast  Level FlightAware Approximate
Mon 02:07:00 PM 41.5839 -76.2153 138° Southeast  Level FlightAware Approximate
Mon 02:08:00 PM 41.5555 -76.1806 138° Southeast  Level FlightAware Approximate
Mon 02:09:00 PM 41.5270 -76.1460 138° Southeast  Level FlightAware Approximate
Mon 02:10:00 PM 41.4985 -76.1116 138° Southeast  Level FlightAware Approximate
Mon 02:11:00 PM 41.4698 -76.0773 138° Southeast  Level FlightAware Approximate
Mon 02:12:00 PM 41.4411 -76.0431 138° Southeast  Level FlightAware Approximate
Mon 02:13:00 PM 41.4125 -76.0089 138° Southeast  Level FlightAware Approximate
Mon 02:14:00 PM 41.3838 -75.9747 138° Southeast  Level FlightAware Approximate
Mon 02:15:00 PM 41.3551 -75.9406 138° Southeast  Level FlightAware Approximate
Mon 02:16:00 PM 41.3264 -75.9065 138° Southeast  Level FlightAware Approximate
Mon 02:17:00 PM 41.2976 -75.8725 138° Southeast  Level FlightAware Approximate
Mon 02:18:00 PM 41.2689 -75.8384 138° Southeast  Level FlightAware Approximate
Mon 02:19:00 PM 41.2402 -75.8044 138° Southeast  Level FlightAware Approximate
Mon 02:20:00 PM 41.2114 -75.7704 138° Southeast  Level FlightAware Approximate
Mon 02:21:00 PM 41.1827 -75.7365 138° Southeast  Level FlightAware Approximate
Mon 02:22:00 PM 41.1539 -75.7026 138° Southeast  Level FlightAware Approximate
Mon 02:22:32 PM 41.1333 -75.6111 135° Southeast 140 161 7,400  Level New York Center
Mon 02:23:00 PM 41.1251 -75.6687 138° Southeast  Level FlightAware Approximate
Mon 02:23:33 PM 41.1056 -75.5733 134° Southeast 140 161 7,500  Level New York Center
Mon 02:24:00 PM 41.0963 -75.6348 138° Southeast  Level FlightAware Approximate
Mon 02:24:33 PM 41.0819 -75.5386 132° Southeast 145 167 7,500  Level New York Center
Mon 02:25:00 PM 41.0675 -75.6010 138° Southeast  Level FlightAware Approximate
Mon 02:25:34 PM 41.0522 -75.5008 136° Southeast 145 167 7,500  Level New York Center
Mon 02:26:00 PM 41.0321 -75.5817 135° Southeast  Level FlightAware Approximate
Mon 02:26:35 PM 41.0183 -75.4628 140° Southeast 145 167 7,100  Level New York Center
Mon 02:27:00 PM 41.0050 -75.5455 135° Southeast  Level FlightAware Approximate
Mon 02:27:32 PM 40.9822 -75.4328 148° Southeast 145 167 6,500  Level New York Center
Mon 02:28:33 PM 40.9542 -75.4033 142° Southeast 150 173 5,900 -694 Descending New York Center
Mon 02:29:33 PM 40.9222 -75.3681 140° Southeast 150 173 5,100 -1,190 Descending New York Center
Mon 02:30:34 PM 40.8861 -75.3300 141° Southeast 150 173 3,500 -1,574 Descending New York Center
Mon 02:32:00 PM 40.8218 -75.3141 149° Southeast  Level FlightAware Approximate
Mon 02:39:00 PM 40.7422 -75.2429 143° Southeast  Level Estimated
Mon 02:40:00 PM 40.7422 -75.2429 143° Southeast  Level Estimated
Mon 02:41:00 PM 40.7422 -75.2429 143° Southeast  Level Estimated
Mon 02:42:00 PM 40.7422 -75.2429 143° Southeast  Level Estimated
Mon 02:43:00 PM 40.7422 -75.2429 143° Southeast  Level Estimated
Mon 02:44:00 PM 40.7422 -75.2429 143° Southeast  Level Estimated
Mon 02:45:00 PM 40.7422 -75.2429 143° Southeast  Level Estimated

Login

Don't have an account? Register now (free) for customized features, flight alerts, and more!